Stoumont, Belgium
Current Conditions -  °F | °C
As of 11:25 AM on Thursday 27 Nov 2014 (Local Time) from EBLB Reporting Station
Broken Clouds Broken Clouds  
Wind Chill: 44°   Ceiling: 1000
Heat Index: 46°   Visibility: 6mi
Dew Point: 45°   Wind: 6mph
Humidity: 93%   Direction: 160°SSE
Pressure: 29.74"   Gusts: NA
Location:  50.41°N, 5.81°E
Report Text: EBLB 271025Z AUTO 16005KT 9000 FEW003/// BKN010/// BKN060/// 08/07 Q1007 GRN
Loading
Personal Weather Stations






























Interactive Weather Map New forecast layout! Learn more

10-Day Weather Forecast

Advertisements
Track Severe Weather on mobile